Time;durP1;ratioP1;P1;durP2;ratioP2;P2;SDS_P1;SDS_P2;PMS_P1;PMS_P2;Temp;Humidity;BMP_temperature;BMP_pressure;BME280_temperature;BME280_humidity;BME280_pressure;Samples;Min_cycle;Max_cycle;Signal;HPM_P1;HPM_P2
2022/03/09 00:01:22;;;;;;;18.45;7.95;;;;;;;;;;7370321;19;20127;-45
2022/03/09 00:03:52;;;;;;;21.00;9.73;;;;;;;;;;7371814;19;20127;-44
2022/03/09 00:06:26;;;;;;;14.55;7.60;;;;;;;;;;7363024;19;20161;-44
2022/03/09 00:08:56;;;;;;;15.63;8.60;;;;;;;;;;7371003;19;20170;-43
2022/03/09 00:11:28;;;;;;;19.15;8.48;;;;;;;;;;7369080;19;20132;-45
2022/03/09 00:14:00;;;;;;;10.07;6.20;;;;;;;;;;7369763;19;20237;-44
2022/03/09 00:16:30;;;;;;;12.93;6.75;;;;;;;;;;7372473;19;20135;-44
2022/03/09 00:18:59;;;;;;;13.73;6.47;;;;;;;;;;7372605;19;20135;-44
2022/03/09 00:21:29;;;;;;;8.88;4.95;;;;;;;;;;7368168;19;20140;-44
2022/03/09 00:24:00;;;;;;;8.50;5.28;;;;;;;;;;7368899;19;20225;-44
2022/03/09 00:26:33;;;;;;;15.13;6.70;;;;;;;;;;7372826;19;20470;-44
2022/03/09 00:29:02;;;;;;;7.20;6.10;;;;;;;;;;7369286;19;20537;-44
2022/03/09 00:31:32;;;;;;;8.15;4.95;;;;;;;;;;7364643;19;20132;-44
2022/03/09 00:34:01;;;;;;;8.85;5.60;;;;;;;;;;7362938;19;20179;-45
2022/03/09 00:36:33;;;;;;;9.80;5.70;;;;;;;;;;7371062;19;20124;-44
2022/03/09 00:39:06;;;;;;;7.63;5.35;;;;;;;;;;7371867;19;20127;-43
2022/03/09 00:41:38;;;;;;;9.80;5.35;;;;;;;;;;7364529;19;20128;-45
2022/03/09 00:44:11;;;;;;;7.30;5.40;;;;;;;;;;7374210;19;20135;-44
2022/03/09 00:46:41;;;;;;;8.88;6.25;;;;;;;;;;7366235;19;20139;-45
2022/03/09 00:49:12;;;;;;;8.23;4.95;;;;;;;;;;7369201;19;20128;-45
2022/03/09 00:51:42;;;;;;;8.70;5.40;;;;;;;;;;7368490;19;20135;-44
2022/03/09 00:54:12;;;;;;;18.02;9.30;;;;;;;;;;7361456;19;20131;-46
2022/03/09 00:56:47;;;;;;;18.38;9.05;;;;;;;;;;7366212;19;20632;-45
2022/03/09 00:59:19;;;;;;;14.18;7.70;;;;;;;;;;7369234;19;20131;-45
2022/03/09 01:01:52;;;;;;;14.30;8.40;;;;;;;;;;7368114;19;20121;-46
2022/03/09 01:04:21;;;;;;;23.17;9.20;;;;;;;;;;7373473;19;20140;-45
2022/03/09 01:06:51;;;;;;;21.35;9.23;;;;;;;;;;7364114;19;20645;-44
2022/03/09 01:09:23;;;;;;;18.45;9.00;;;;;;;;;;7368974;19;20617;-44
2022/03/09 01:12:00;;;;;;;22.63;9.10;;;;;;;;;;7368679;19;20143;-44
2022/03/09 01:14:32;;;;;;;30.48;12.05;;;;;;;;;;7371177;19;20134;-44
2022/03/09 01:17:01;;;;;;;21.08;9.75;;;;;;;;;;7366112;19;20127;-45
2022/03/09 01:19:31;;;;;;;11.05;6.85;;;;;;;;;;7373142;19;20211;-45
2022/03/09 01:22:00;;;;;;;9.25;5.75;;;;;;;;;;7380581;19;20142;-45
2022/03/09 01:24:32;;;;;;;8.02;5.13;;;;;;;;;;7376416;19;20165;-45
2022/03/09 01:27:07;;;;;;;8.60;5.80;;;;;;;;;;7367983;19;20512;-45
2022/03/09 01:29:41;;;;;;;30.63;13.18;;;;;;;;;;7378015;19;20142;-45
2022/03/09 01:32:13;;;;;;;15.93;6.13;;;;;;;;;;7369266;19;20157;-44
2022/03/09 01:34:45;;;;;;;10.95;6.20;;;;;;;;;;7374307;19;20166;-45
2022/03/09 01:37:14;;;;;;;9.48;5.30;;;;;;;;;;7375436;19;20203;-44
2022/03/09 01:39:46;;;;;;;9.45;5.10;;;;;;;;;;7363261;19;20123;-44
2022/03/09 01:42:19;;;;;;;7.20;4.32;;;;;;;;;;7373322;19;20132;-45
2022/03/09 01:44:48;;;;;;;8.35;6.03;;;;;;;;;;7368342;19;20135;-44
2022/03/09 01:47:18;;;;;;;7.03;5.20;;;;;;;;;;7374049;19;20136;-45
2022/03/09 01:49:50;;;;;;;12.38;5.40;;;;;;;;;;7375019;19;20140;-44
2022/03/09 01:52:24;;;;;;;12.50;6.90;;;;;;;;;;7376689;19;20168;-45
2022/03/09 01:54:57;;;;;;;35.92;12.75;;;;;;;;;;7370359;19;20223;-45
2022/03/09 01:57:32;;;;;;;15.73;8.32;;;;;;;;;;7373284;19;20134;-45
2022/03/09 02:00:02;;;;;;;18.77;7.72;;;;;;;;;;7373220;19;20154;-44
2022/03/09 02:02:35;;;;;;;23.67;9.68;;;;;;;;;;7376052;19;20131;-44
2022/03/09 02:05:05;;;;;;;24.08;8.48;;;;;;;;;;7372372;19;20148;-45
2022/03/09 02:10:18;;;;;;;11.93;5.95;;;;;;;;;;7369593;19;20840;-45
2022/03/09 02:12:54;;;;;;;25.58;9.00;;;;;;;;;;7377980;19;20154;-45
2022/03/09 02:15:23;;;;;;;16.25;7.43;;;;;;;;;;7370510;19;20472;-45
2022/03/09 02:17:53;;;;;;;20.27;7.78;;;;;;;;;;7369218;19;20139;-45
2022/03/09 02:20:22;;;;;;;23.70;9.02;;;;;;;;;;7377708;19;20136;-45
2022/03/09 02:22:55;;;;;;;12.88;6.30;;;;;;;;;;7370077;19;20550;-44
2022/03/09 02:25:26;;;;;;;8.70;5.47;;;;;;;;;;7373447;19;20138;-45
2022/03/09 02:27:56;;;;;;;15.75;7.30;;;;;;;;;;7371338;19;20151;-44
2022/03/09 02:30:26;;;;;;;15.95;8.00;;;;;;;;;;7367623;19;20128;-45
2022/03/09 02:32:55;;;;;;;7.78;4.72;;;;;;;;;;7373367;19;20150;-45
2022/03/09 02:35:27;;;;;;;19.52;8.48;;;;;;;;;;7369065;19;20167;-45
2022/03/09 02:38:02;;;;;;;23.98;8.68;;;;;;;;;;7377684;19;20124;-44
2022/03/09 02:40:34;;;;;;;21.77;9.55;;;;;;;;;;7372284;19;20143;-44
2022/03/09 02:43:04;;;;;;;9.50;4.82;;;;;;;;;;7378045;19;20131;-45
2022/03/09 02:45:36;;;;;;;8.50;5.13;;;;;;;;;;7365058;19;20151;-44
2022/03/09 02:48:08;;;;;;;10.75;5.75;;;;;;;;;;7362698;19;20139;-44
2022/03/09 02:50:37;;;;;;;20.08;10.95;;;;;;;;;;7375981;19;20127;-44
2022/03/09 02:53:09;;;;;;;8.88;5.97;;;;;;;;;;7365203;19;20165;-44
2022/03/09 02:55:39;;;;;;;21.27;10.80;;;;;;;;;;7358297;19;20173;-44
2022/03/09 02:58:09;;;;;;;10.00;5.93;;;;;;;;;;7370205;19;20135;-45
2022/03/09 03:00:41;;;;;;;9.38;5.60;;;;;;;;;;7366719;19;20623;-44
2022/03/09 03:03:10;;;;;;;7.63;5.05;;;;;;;;;;7370867;19;20187;-44
2022/03/09 03:05:44;;;;;;;7.60;4.95;;;;;;;;;;7373597;19;20483;-44
2022/03/09 03:08:22;;;;;;;7.55;5.10;;;;;;;;;;7372181;19;20138;-44
2022/03/09 03:10:51;;;;;;;7.18;5.18;;;;;;;;;;7372648;19;20147;-44
2022/03/09 03:13:21;;;;;;;8.40;5.28;;;;;;;;;;7370797;19;20131;-45
2022/03/09 03:15:53;;;;;;;11.95;5.90;;;;;;;;;;7370916;19;20522;-45
2022/03/09 03:18:25;;;;;;;7.75;5.85;;;;;;;;;;7376748;19;20128;-45
2022/03/09 03:20:57;;;;;;;8.52;6.78;;;;;;;;;;7373918;19;20148;-44
2022/03/09 03:23:32;;;;;;;8.75;5.55;;;;;;;;;;7370503;19;20621;-43
2022/03/09 03:26:02;;;;;;;7.03;4.80;;;;;;;;;;7366265;19;20140;-42
2022/03/09 03:28:32;;;;;;;8.50;5.22;;;;;;;;;;7371222;19;20134;-44
2022/03/09 03:31:01;;;;;;;9.13;5.25;;;;;;;;;;7374452;19;20131;-41
2022/03/09 03:33:31;;;;;;;10.73;5.93;;;;;;;;;;7373194;19;20193;-42
2022/03/09 03:36:01;;;;;;;11.00;5.50;;;;;;;;;;7370962;19;20638;-42
2022/03/09 03:38:37;;;;;;;8.10;5.15;;;;;;;;;;7374462;19;20150;-44
2022/03/09 03:41:12;;;;;;;7.10;4.95;;;;;;;;;;7371178;19;20138;-42
2022/03/09 03:43:42;;;;;;;6.22;4.72;;;;;;;;;;7374071;19;20150;-43
2022/03/09 03:46:11;;;;;;;8.55;5.30;;;;;;;;;;7374777;19;20135;-42
2022/03/09 03:48:43;;;;;;;8.18;4.82;;;;;;;;;;7372459;19;20138;-43
2022/03/09 03:51:13;;;;;;;9.48;5.50;;;;;;;;;;7372711;19;20150;-43
2022/03/09 03:53:48;;;;;;;11.25;5.78;;;;;;;;;;7375696;19;20157;-43
2022/03/09 03:56:17;;;;;;;8.90;5.40;;;;;;;;;;7371905;19;20124;-43
2022/03/09 03:58:49;;;;;;;9.30;5.50;;;;;;;;;;7381086;19;20134;-42
2022/03/09 04:01:21;;;;;;;7.70;4.53;;;;;;;;;;7371590;19;20487;-45
2022/03/09 04:03:53;;;;;;;8.90;5.30;;;;;;;;;;7370659;19;20143;-44
2022/03/09 04:06:22;;;;;;;7.22;4.88;;;;;;;;;;7369788;19;20140;-45
2022/03/09 04:08:55;;;;;;;10.55;5.78;;;;;;;;;;7372609;19;20160;-45
2022/03/09 04:11:27;;;;;;;6.30;5.53;;;;;;;;;;7368978;19;20178;-44
2022/03/09 04:13:59;;;;;;;10.45;5.15;;;;;;;;;;7370865;19;20134;-45
2022/03/09 04:16:31;;;;;;;8.20;5.20;;;;;;;;;;7368220;19;20183;-46
2022/03/09 04:19:04;;;;;;;11.57;5.63;;;;;;;;;;7372692;19;20677;-46
2022/03/09 04:21:33;;;;;;;11.57;5.80;;;;;;;;;;7368325;19;20135;-43
2022/03/09 04:24:06;;;;;;;7.80;4.85;;;;;;;;;;7372577;19;20226;-43
2022/03/09 04:26:37;;;;;;;9.43;6.45;;;;;;;;;;7372505;19;20137;-44
2022/03/09 04:29:10;;;;;;;8.48;5.10;;;;;;;;;;7363158;19;20128;-44
2022/03/09 04:31:42;;;;;;;9.55;6.45;;;;;;;;;;7369456;19;20132;-44
2022/03/09 04:34:14;;;;;;;10.50;4.65;;;;;;;;;;7360389;19;20648;-44
2022/03/09 04:36:43;;;;;;;9.63;5.20;;;;;;;;;;7372538;19;20127;-44
2022/03/09 04:39:18;;;;;;;10.93;6.03;;;;;;;;;;7359492;19;20734;-45
2022/03/09 04:41:48;;;;;;;8.32;5.97;;;;;;;;;;7365209;19;20146;-45
2022/03/09 04:44:17;;;;;;;9.02;5.72;;;;;;;;;;7364353;19;20155;-45
2022/03/09 04:46:47;;;;;;;10.10;5.50;;;;;;;;;;7369690;19;20191;-45
2022/03/09 04:49:16;;;;;;;10.23;5.85;;;;;;;;;;7369095;19;20195;-43
2022/03/09 04:51:46;;;;;;;10.85;6.57;;;;;;;;;;7373760;19;20178;-45
2022/03/09 04:54:20;;;;;;;11.95;6.20;;;;;;;;;;7374243;19;20669;-44
2022/03/09 04:56:50;;;;;;;11.07;6.00;;;;;;;;;;7381579;19;20226;-44
2022/03/09 04:59:20;;;;;;;6.50;5.47;;;;;;;;;;7379530;19;20485;-43
2022/03/09 05:01:52;;;;;;;11.48;6.88;;;;;;;;;;7371502;19;20616;-44
2022/03/09 05:04:22;;;;;;;9.90;6.20;;;;;;;;;;7376239;19;20147;-45
2022/03/09 05:06:56;;;;;;;11.77;5.55;;;;;;;;;;7371309;19;20620;-45
2022/03/09 05:09:28;;;;;;;12.82;7.22;;;;;;;;;;7364119;19;20132;-45
2022/03/09 05:11:58;;;;;;;8.85;5.72;;;;;;;;;;7373864;19;20749;-44
2022/03/09 05:14:30;;;;;;;9.30;5.57;;;;;;;;;;7377707;19;20132;-44
2022/03/09 05:17:02;;;;;;;6.50;5.13;;;;;;;;;;7374328;19;20128;-44
2022/03/09 05:19:32;;;;;;;13.88;6.70;;;;;;;;;;7367393;19;20493;-44
2022/03/09 05:22:01;;;;;;;8.88;6.22;;;;;;;;;;7375521;19;20195;-45
2022/03/09 05:24:33;;;;;;;8.05;6.32;;;;;;;;;;7369246;19;20139;-44
2022/03/09 05:27:03;;;;;;;10.38;5.78;;;;;;;;;;7379106;19;20131;-44
2022/03/09 05:29:35;;;;;;;10.00;5.60;;;;;;;;;;7376222;19;20509;-44
2022/03/09 05:32:05;;;;;;;10.73;6.38;;;;;;;;;;7362363;19;20143;-45
2022/03/09 05:34:36;;;;;;;10.05;6.70;;;;;;;;;;7371922;19;20262;-45
2022/03/09 05:37:06;;;;;;;11.10;6.45;;;;;;;;;;7376667;19;20136;-45
2022/03/09 05:39:44;;;;;;;10.95;6.93;;;;;;;;;;7376675;19;20499;-45
2022/03/09 05:42:14;;;;;;;11.88;6.93;;;;;;;;;;7370763;19;20227;-45
2022/03/09 05:44:48;;;;;;;14.10;6.88;;;;;;;;;;7366898;19;20159;-44
2022/03/09 05:47:20;;;;;;;12.50;6.45;;;;;;;;;;7377796;19;20606;-44
2022/03/09 05:49:50;;;;;;;18.45;7.97;;;;;;;;;;7373274;19;20488;-45
2022/03/09 05:52:20;;;;;;;13.98;7.00;;;;;;;;;;7369875;19;20484;-45
2022/03/09 05:54:55;;;;;;;13.30;7.10;;;;;;;;;;7350211;19;20595;-45
2022/03/09 05:57:27;;;;;;;11.05;6.50;;;;;;;;;;7373989;19;20138;-44
2022/03/09 06:00:02;;;;;;;9.57;6.30;;;;;;;;;;7378767;19;20127;-44
2022/03/09 06:02:41;;;;;;;8.50;5.57;;;;;;;;;;7377969;19;20130;-44
2022/03/09 06:05:11;;;;;;;8.07;6.10;;;;;;;;;;7374936;19;20139;-45
2022/03/09 06:07:41;;;;;;;8.90;6.40;;;;;;;;;;7379814;19;20135;-44
2022/03/09 06:10:13;;;;;;;7.20;5.20;;;;;;;;;;7371470;19;20132;-44
2022/03/09 06:12:45;;;;;;;10.25;6.57;;;;;;;;;;7374954;19;20131;-44
2022/03/09 06:15:17;;;;;;;9.05;6.43;;;;;;;;;;7372913;19;20132;-45
2022/03/09 06:17:47;;;;;;;10.45;6.25;;;;;;;;;;7361596;19;20670;-45
2022/03/09 06:20:18;;;;;;;9.73;6.10;;;;;;;;;;7374180;19;20164;-43
2022/03/09 06:22:50;;;;;;;9.98;6.22;;;;;;;;;;7376474;19;20670;-45
2022/03/09 06:25:23;;;;;;;9.30;5.85;;;;;;;;;;7371814;19;20203;-46
2022/03/09 06:27:53;;;;;;;8.65;5.65;;;;;;;;;;7375394;19;20227;-44
2022/03/09 06:30:23;;;;;;;10.43;6.43;;;;;;;;;;7366840;19;20164;-44
2022/03/09 06:32:55;;;;;;;9.48;6.20;;;;;;;;;;7372188;19;20240;-45
2022/03/09 06:35:25;;;;;;;12.32;7.55;;;;;;;;;;7377353;19;20751;-45
2022/03/09 06:37:54;;;;;;;12.07;6.75;;;;;;;;;;7371340;19;20135;-45
2022/03/09 06:40:26;;;;;;;11.80;6.78;;;;;;;;;;7375865;19;20156;-44
2022/03/09 06:42:58;;;;;;;11.98;6.30;;;;;;;;;;7376003;19;20154;-44
2022/03/09 06:45:30;;;;;;;10.95;6.78;;;;;;;;;;7376797;19;20131;-44
2022/03/09 06:48:05;;;;;;;12.70;7.68;;;;;;;;;;7375373;19;20294;-44
2022/03/09 06:50:40;;;;;;;9.77;6.55;;;;;;;;;;7374234;19;20154;-44
2022/03/09 06:53:13;;;;;;;11.70;5.95;;;;;;;;;;7378894;19;20142;-44
2022/03/09 06:55:46;;;;;;;12.38;7.32;;;;;;;;;;7373561;19;20151;-43
2022/03/09 06:58:15;;;;;;;8.82;6.82;;;;;;;;;;7376465;19;20173;-43
2022/03/09 07:00:48;;;;;;;14.75;8.07;;;;;;;;;;7376235;19;20159;-42
2022/03/09 07:03:18;;;;;;;15.07;8.65;;;;;;;;;;7370697;19;20127;-43
2022/03/09 07:05:47;;;;;;;13.57;7.30;;;;;;;;;;7371511;19;20148;-43
2022/03/09 07:08:17;;;;;;;15.35;8.93;;;;;;;;;;7372249;19;20608;-42
2022/03/09 07:10:50;;;;;;;12.60;8.20;;;;;;;;;;7376223;19;20130;-43
2022/03/09 07:13:19;;;;;;;19.55;8.73;;;;;;;;;;7369218;19;20132;-42
2022/03/09 07:15:49;;;;;;;9.60;6.07;;;;;;;;;;7371903;19;20119;-43
2022/03/09 07:18:18;;;;;;;13.32;8.38;;;;;;;;;;7366590;19;20139;-41
2022/03/09 07:20:48;;;;;;;11.18;6.80;;;;;;;;;;7372616;19;20138;-42
2022/03/09 07:23:22;;;;;;;14.20;7.30;;;;;;;;;;7368545;19;20131;-43
2022/03/09 07:25:57;;;;;;;13.25;7.45;;;;;;;;;;7376011;19;20124;-42
2022/03/09 07:28:26;;;;;;;10.32;6.85;;;;;;;;;;7375355;19;20139;-42
2022/03/09 07:30:56;;;;;;;11.00;7.82;;;;;;;;;;7364184;19;20139;-45
2022/03/09 07:33:25;;;;;;;12.68;7.97;;;;;;;;;;7368537;19;20147;-45
2022/03/09 07:35:59;;;;;;;13.45;7.80;;;;;;;;;;7365621;19;20178;-44
2022/03/09 07:38:29;;;;;;;13.63;7.07;;;;;;;;;;7372367;19;20137;-45
2022/03/09 07:41:02;;;;;;;14.95;7.78;;;;;;;;;;7371544;19;20143;-46
2022/03/09 07:43:34;;;;;;;10.93;7.40;;;;;;;;;;7371160;19;20127;-44
2022/03/09 07:46:03;;;;;;;12.75;8.10;;;;;;;;;;7375101;19;20138;-45
2022/03/09 07:48:35;;;;;;;11.25;8.15;;;;;;;;;;7364745;19;20202;-44
2022/03/09 07:51:05;;;;;;;12.18;7.90;;;;;;;;;;7366178;19;20234;-44
2022/03/09 07:53:42;;;;;;;12.38;8.23;;;;;;;;;;7362592;19;20140;-44
2022/03/09 07:56:17;;;;;;;15.73;8.38;;;;;;;;;;7371763;19;20150;-45
2022/03/09 07:58:46;;;;;;;14.27;8.48;;;;;;;;;;7370236;19;20621;-46
2022/03/09 08:01:16;;;;;;;15.25;8.02;;;;;;;;;;7364501;19;20228;-45
2022/03/09 08:03:46;;;;;;;18.20;9.80;;;;;;;;;;7355022;19;20965;-45
2022/03/09 08:06:18;;;;;;;13.88;8.52;;;;;;;;;;7367981;19;20123;-45
2022/03/09 08:08:48;;;;;;;20.88;10.48;;;;;;;;;;7368768;19;20150;-45
2022/03/09 08:11:22;;;;;;;14.57;9.50;;;;;;;;;;7355318;19;20669;-45
2022/03/09 08:13:54;;;;;;;15.75;9.43;;;;;;;;;;7372225;19;20153;-45
2022/03/09 08:16:24;;;;;;;14.32;9.32;;;;;;;;;;7364507;19;20420;-45
2022/03/09 08:18:53;;;;;;;13.82;9.10;;;;;;;;;;7363440;19;20139;-45
2022/03/09 08:21:23;;;;;;;16.58;10.60;;;;;;;;;;7372120;19;20605;-45
2022/03/09 08:23:53;;;;;;;20.52;11.00;;;;;;;;;;7360783;19;20131;-46
2022/03/09 08:26:25;;;;;;;17.02;10.35;;;;;;;;;;7369579;19;20131;-45
2022/03/09 08:28:56;;;;;;;16.35;9.43;;;;;;;;;;7376474;19;20123;-46
2022/03/09 08:31:26;;;;;;;16.90;10.35;;;;;;;;;;7372258;19;20131;-47
2022/03/09 08:33:58;;;;;;;17.50;9.77;;;;;;;;;;7373031;19;20143;-46
2022/03/09 08:36:28;;;;;;;22.00;10.83;;;;;;;;;;7364008;19;20445;-45
2022/03/09 08:38:57;;;;;;;14.47;10.00;;;;;;;;;;7379262;19;20387;-45
2022/03/09 08:41:31;;;;;;;26.33;10.20;;;;;;;;;;7374144;19;20364;-48
2022/03/09 08:44:06;;;;;;;16.33;10.50;;;;;;;;;;7370860;19;20394;-46
2022/03/09 08:46:36;;;;;;;12.20;9.00;;;;;;;;;;7372514;19;20871;-45
2022/03/09 08:49:08;;;;;;;15.83;9.63;;;;;;;;;;7369225;19;20391;-45
2022/03/09 08:51:40;;;;;;;15.10;9.90;;;;;;;;;;7356887;19;20387;-46
2022/03/09 08:54:09;;;;;;;14.60;9.70;;;;;;;;;;7366429;19;20368;-45
2022/03/09 08:56:42;;;;;;;12.83;9.20;;;;;;;;;;7363188;19;20410;-47
2022/03/09 08:59:14;;;;;;;13.07;8.97;;;;;;;;;;7373610;19;20404;-46
2022/03/09 09:01:45;;;;;;;12.67;9.30;;;;;;;;;;7367706;19;20372;-46
2022/03/09 09:04:16;;;;;;;13.87;9.37;;;;;;;;;;7370473;19;20392;-46
2022/03/09 09:06:46;;;;;;;15.10;9.20;;;;;;;;;;7368819;19;20862;-46
2022/03/09 09:09:21;;;;;;;9.47;8.47;;;;;;;;;;7375900;19;20378;-46
2022/03/09 09:11:54;;;;;;;12.00;9.70;;;;;;;;;;7370742;19;20683;-46
2022/03/09 09:14:23;;;;;;;11.13;9.47;;;;;;;;;;7375994;19;20376;-46
2022/03/09 09:16:55;;;;;;;12.17;8.67;;;;;;;;;;7372231;19;20415;-46
2022/03/09 09:19:25;;;;;;;14.27;9.30;;;;;;;;;;7371059;19;20902;-46
2022/03/09 09:21:54;;;;;;;10.17;7.90;;;;;;;;;;7369732;19;20706;-45
2022/03/09 09:24:26;;;;;;;9.27;8.10;;;;;;;;;;7374494;19;20364;-45
2022/03/09 09:27:02;;;;;;;12.23;9.60;;;;;;;;;;7373009;19;20368;-46
2022/03/09 09:29:34;;;;;;;13.23;10.17;;;;;;;;;;7377750;19;20968;-46
2022/03/09 09:32:04;;;;;;;11.23;8.80;;;;;;;;;;7366908;19;20468;-46
2022/03/09 09:34:38;;;;;;;12.63;10.30;;;;;;;;;;7374023;19;20486;-46
2022/03/09 09:37:13;;;;;;;15.87;8.93;;;;;;;;;;7375351;19;20379;-46
2022/03/09 09:39:45;;;;;;;10.73;9.53;;;;;;;;;;7373857;19;20727;-45
2022/03/09 09:42:21;;;;;;;12.00;9.80;;;;;;;;;;7373089;19;20448;-45
2022/03/09 09:44:52;;;;;;;12.80;9.73;;;;;;;;;;7374481;19;20857;-46
2022/03/09 09:47:23;;;;;;;12.20;9.63;;;;;;;;;;7377297;19;20398;-46
2022/03/09 09:49:55;;;;;;;13.67;10.13;;;;;;;;;;7369354;19;20405;-46
2022/03/09 09:52:27;;;;;;;14.27;10.67;;;;;;;;;;7367805;19;21979;-46
2022/03/09 09:55:00;;;;;;;15.33;11.47;;;;;;;;;;7371297;19;21053;-45
2022/03/09 09:57:35;;;;;;;15.07;10.50;;;;;;;;;;7372300;19;20360;-46
2022/03/09 10:00:07;;;;;;;12.37;10.50;;;;;;;;;;7377808;19;20757;-46
2022/03/09 10:02:43;;;;;;;13.17;9.90;;;;;;;;;;7366261;19;20379;-47
2022/03/09 10:05:16;;;;;;;13.73;10.93;;;;;;;;;;7363738;19;20921;-47
2022/03/09 10:08:03;;;;;;;13.13;11.57;;;;;;;;;;7368678;19;20368;-47
2022/03/09 10:10:33;;;;;;;10.97;9.87;;;;;;;;;;7369722;19;20364;-47
2022/03/09 10:13:15;;;;;;;13.67;11.87;;;;;;;;;;7356640;19;20372;-47
2022/03/09 10:15:45;;;;;;;17.30;11.20;;;;;;;;;;7370327;19;20744;-47
2022/03/09 10:18:15;;;;;;;17.03;11.63;;;;;;;;;;7358024;19;20771;-47
2022/03/09 10:20:47;;;;;;;11.70;10.50;;;;;;;;;;7368611;19;20395;-47
2022/03/09 10:23:17;;;;;;;13.60;10.43;;;;;;;;;;7368125;19;21041;-47
2022/03/09 10:25:47;;;;;;;14.77;10.97;;;;;;;;;;7377497;19;20815;-47
2022/03/09 10:28:22;;;;;;;12.67;11.07;;;;;;;;;;7375027;19;20394;-47
2022/03/09 10:30:53;;;;;;;13.03;10.80;;;;;;;;;;7366315;19;21834;-47
2022/03/09 10:33:23;;;;;;;12.13;10.93;;;3.90;36.90;;;;;;7375074;19;20396;-48
2022/03/09 10:35:52;;;;;;;14.53;12.00;;;28.10;15.40;;;;;;7363915;19;20424;-47
2022/03/09 10:38:29;;;;;;;14.70;11.63;;;26.70;15.40;;;;;;7372707;19;20507;-47
2022/03/09 10:41:05;;;;;;;12.53;11.30;;;26.00;16.00;;;;;;7377975;19;20994;-48
2022/03/09 10:43:40;;;;;;;15.00;10.93;;;27.50;15.40;;;;;;7374024;19;20380;-47
2022/03/09 10:46:12;;;;;;;13.70;11.90;;;28.80;14.70;;;;;;7375308;19;20375;-52
2022/03/09 10:49:00;;;;;;;15.20;11.50;;;29.20;14.10;;;;;;7374497;19;20372;-46
2022/03/09 10:51:32;;;;;;;13.50;11.20;;;29.90;13.90;;;;;;7376341;19;20371;-49
2022/03/09 10:54:03;;;;;;;13.37;12.07;;;30.30;13.60;;;;;;7375381;19;20724;-49
2022/03/09 10:56:34;;;;;;;13.20;11.90;;;30.10;13.40;;;;;;7373536;19;20380;-48
2022/03/09 10:59:17;;;;;;;13.40;12.00;;;30.50;13.50;;;;;;7374597;19;20383;-48
2022/03/09 11:02:04;;;;;;;15.73;11.80;;;30.70;13.00;;;;;;7370594;19;20914;-48
2022/03/09 11:04:34;;;;;;;12.87;11.40;;;30.60;12.80;;;;;;7374082;19;20391;-47
2022/03/09 11:07:04;;;;;;;13.63;12.20;;;30.90;12.80;;;;;;7373298;19;20400;-48
2022/03/09 11:09:38;;;;;;;15.13;12.77;;;31.50;12.60;;;;;;7375509;19;20401;-48
2022/03/09 11:12:09;;;;;;;15.67;13.93;;;32.10;12.00;;;;;;7372422;19;20953;-48
2022/03/09 11:14:43;;;;;;;15.30;13.80;;;31.60;12.40;;;;;;7374422;19;20943;-48
2022/03/09 11:17:15;;;;;;;17.67;13.57;;;31.90;12.10;;;;;;7372607;19;20866;-49
2022/03/09 11:19:49;;;;;;;15.80;14.17;;;31.50;12.00;;;;;;7374723;19;20367;-49
2022/03/09 11:22:21;;;;;;;14.20;12.67;;;31.70;11.80;;;;;;7373808;19;20417;-48
2022/03/09 11:24:55;;;;;;;15.20;13.37;;;31.90;12.00;;;;;;7368209;19;20381;-48
2022/03/09 11:27:27;;;;;;;18.23;14.57;;;32.40;11.90;;;;;;7371621;19;20731;-49
2022/03/09 11:30:00;;;;;;;18.00;15.47;;;32.60;11.60;;;;;;7365070;19;20963;-50
2022/03/09 11:32:36;;;;;;;17.83;15.17;;;32.40;11.20;;;;;;7378070;19;21245;-49
2022/03/09 11:35:33;;;;;;;18.93;15.50;;;32.70;11.10;;;;;;7370664;19;20776;-49
2022/03/09 11:38:41;;;;;;;14.63;12.90;;;33.40;10.80;;;;;;7369352;19;20850;-49
2022/03/09 11:41:23;;;;;;;15.50;13.90;;;33.70;10.80;;;;;;7375992;19;20803;-49
2022/03/09 11:43:53;;;;;;;15.17;13.57;;;34.10;10.10;;;;;;7371001;19;20360;-49
2022/03/09 11:47:04;;;;;;;15.73;13.97;;;34.10;10.20;;;;;;7366770;19;20384;-51
2022/03/09 11:49:36;;;;;;;17.30;14.33;;;33.80;10.40;;;;;;7372290;19;20402;-49
2022/03/09 11:52:11;;;;;;;15.10;13.37;;;33.60;10.60;;;;;;7367158;19;21431;-49
2022/03/09 11:54:47;;;;;;;15.20;13.60;;;34.30;10.10;;;;;;7374707;19;20443;-49
2022/03/09 11:57:22;;;;;;;15.03;13.30;;;34.70;9.90;;;;;;7366009;19;20444;-49
2022/03/09 12:00:10;;;;;;;13.80;12.40;;;34.70;10.20;;;;;;7370631;19;20705;-49
2022/03/09 12:02:47;;;;;;;13.93;12.63;;;35.40;9.60;;;;;;7365679;19;20457;-49
2022/03/09 12:05:38;;;;;;;15.97;14.30;;;34.60;10.00;;;;;;7368889;19;20364;-49
2022/03/09 12:08:11;;;;;;;15.60;13.90;;;36.30;9.90;;;;;;7370360;19;20384;-49
2022/03/09 12:10:52;;;;;;;14.27;12.87;;;35.90;9.40;;;;;;7364690;19;20368;-49
2022/03/09 12:13:31;;;;;;;15.73;13.47;;;36.20;9.60;;;;;;7372924;19;21180;-49
2022/03/09 12:16:22;;;;;;;14.60;13.10;;;36.30;9.30;;;;;;7370768;19;20390;-49
2022/03/09 12:19:12;;;;;;;15.77;13.90;;;36.00;9.50;;;;;;7370416;19;20388;-49
2022/03/09 12:22:04;;;;;;;14.90;12.77;;;36.20;9.30;;;;;;7371092;19;20391;-48
2022/03/09 12:24:39;;;;;;;13.60;12.30;;;36.50;9.10;;;;;;7368725;19;20371;-49
2022/03/09 12:27:27;;;;;;;13.20;11.87;;;37.00;9.10;;;;;;7367005;19;20368;-49
2022/03/09 12:30:02;;;;;;;12.73;11.40;;;36.80;9.10;;;;;;7362913;19;21406;-49
2022/03/09 12:32:43;;;;;;;13.63;12.23;;;36.30;9.20;;;;;;7362337;19;20384;-48
2022/03/09 12:35:17;;;;;;;13.87;12.40;;;36.30;9.50;;;;;;7366601;19;20439;-49
2022/03/09 12:37:48;;;;;;;13.20;11.80;;;36.80;9.40;;;;;;7367413;19;20416;-49
2022/03/09 12:40:19;;;;;;;13.70;12.40;;;36.20;9.30;;;;;;7371305;19;20369;-49
2022/03/09 12:43:01;;;;;;;17.00;13.27;;;36.20;9.40;;;;;;7365859;19;20383;-49
2022/03/09 12:45:30;;;;;;;13.03;11.73;;;36.50;9.60;;;;;;7363643;19;20939;-49
2022/03/09 12:47:59;;;;;;;13.07;10.77;;;36.60;9.50;;;;;;7366819;19;20375;-49
2022/03/09 12:50:33;;;;;;;12.23;10.90;;;37.10;9.30;;;;;;7357103;19;20380;-50
2022/03/09 12:53:02;;;;;;;13.17;11.87;;;37.00;9.30;;;;;;7365503;19;20455;-50
2022/03/09 12:55:32;;;;;;;12.63;11.33;;;36.40;9.10;;;;;;7367397;19;20379;-49
2022/03/09 12:58:04;;;;;;;12.43;11.17;;;35.30;9.40;;;;;;7368459;19;20391;-50
2022/03/09 13:00:37;;;;;;;13.80;12.27;;;35.10;9.20;;;;;;7369581;19;20360;-49
2022/03/09 13:03:12;;;;;;;12.97;11.67;;;35.70;9.60;;;;;;7371236;19;20371;-49
2022/03/09 13:05:44;;;;;;;14.87;12.23;;;36.10;9.60;;;;;;7369247;19;20372;-49
2022/03/09 13:08:14;;;;;;;13.40;11.90;;;36.40;9.70;;;;;;7370808;19;20392;-50
2022/03/09 13:10:49;;;;;;;14.10;12.00;;;35.90;9.60;;;;;;7368531;19;20756;-50
2022/03/09 13:13:19;;;;;;;17.63;11.90;;;35.50;10.00;;;;;;7372800;19;20379;-50
2022/03/09 13:15:59;;;;;;;14.30;11.50;;;34.60;10.30;;;;;;7377064;19;20910;-50
2022/03/09 13:18:32;;;;;;;14.83;12.00;;;34.90;10.20;;;;;;7348464;19;20849;-50
2022/03/09 13:21:05;;;;;;;13.77;12.37;;;34.30;10.20;;;;;;7373710;19;20727;-50
2022/03/09 13:23:37;;;;;;;14.37;12.20;;;35.00;10.00;;;;;;7373934;19;20376;-50
2022/03/09 13:26:16;;;;;;;14.90;13.10;;;33.90;10.10;;;;;;7377894;19;20372;-50
2022/03/09 13:28:47;;;;;;;18.07;12.03;;;33.40;10.70;;;;;;7372845;19;20412;-50
2022/03/09 13:31:21;;;;;;;14.50;12.27;;;33.80;11.00;;;;;;7373766;19;20435;-50
2022/03/09 13:33:52;;;;;;;14.93;12.43;;;34.10;10.50;;;;;;7366311;19;20799;-50
2022/03/09 13:36:27;;;;;;;16.10;12.97;;;33.60;10.60;;;;;;7376535;19;20388;-50
2022/03/09 13:39:00;;;;;;;14.00;12.50;;;34.00;10.50;;;;;;7375729;19;20929;-50
2022/03/09 13:41:38;;;;;;;13.87;12.47;;;33.90;11.10;;;;;;7374716;19;20376;-49
2022/03/09 13:44:08;;;;;;;15.37;13.37;;;33.60;10.40;;;;;;7372078;19;20375;-49
2022/03/09 13:46:40;;;;;;;14.70;12.30;;;32.90;10.60;;;;;;7367259;19;20380;-50
2022/03/09 13:49:14;;;;;;;17.00;14.20;;;31.80;11.10;;;;;;7364142;19;20379;-49
2022/03/09 13:51:47;;;;;;;16.63;13.40;;;32.20;11.10;;;;;;7374702;19;20376;-49
2022/03/09 13:54:23;;;;;;;15.07;13.03;;;32.70;10.90;;;;;;7375926;19;20392;-50
2022/03/09 13:57:04;;;;;;;14.10;12.70;;;32.00;11.00;;;;;;7370699;19;20383;-49
2022/03/09 13:59:42;;;;;;;17.50;14.13;;;31.30;11.30;;;;;;7370988;19;20847;-49
2022/03/09 14:02:22;;;;;;;14.40;12.30;;;30.70;11.50;;;;;;7369961;19;20404;-49
2022/03/09 14:04:51;;;;;;;15.60;13.40;;;30.90;11.80;;;;;;7374062;19;20953;-49
2022/03/09 14:07:39;;;;;;;15.60;12.90;;;29.90;11.90;;;;;;7378394;19;20379;-49
2022/03/09 14:10:17;;;;;;;19.10;13.97;;;29.30;11.90;;;;;;7377309;19;20421;-49
2022/03/09 14:12:48;;;;;;;15.90;14.27;;;29.60;12.20;;;;;;7370329;19;20373;-49
2022/03/09 14:15:17;;;;;;;18.17;14.87;;;29.10;12.50;;;;;;7370709;19;20730;-49
2022/03/09 14:17:49;;;;;;;19.10;14.53;;;27.90;12.90;;;;;;7376628;19;20364;-49
2022/03/09 14:20:21;;;;;;;18.83;14.20;;;27.10;13.50;;;;;;7367639;19;21017;-48
2022/03/09 14:22:53;;;;;;;16.07;13.10;;;25.90;13.80;;;;;;7377016;19;20918;-48
2022/03/09 14:25:23;;;;;;;18.77;13.70;;;24.20;14.70;;;;;;7371039;19;20937;-48
2022/03/09 14:27:58;;;;;;;19.03;13.60;;;23.40;15.10;;;;;;7379132;19;20965;-48
2022/03/09 14:30:29;;;;;;;16.13;13.63;;;22.40;16.30;;;;;;7375559;19;20769;-48